Time;durP1;ratioP1;P1;durP2;ratioP2;P2;SDS_P1;SDS_P2;PMS_P1;PMS_P2;Temp;Humidity;BMP_temperature;BMP_pressure;BME280_temperature;BME280_humidity;BME280_pressure;Samples;Min_cycle;Max_cycle;Signal;HPM_P1;HPM_P2
2023/10/08 00:01:15;;;;;;;6.90;3.80;;;;;;;18.05;66.65;99972.41;7216320;40;20429;31
2023/10/08 00:06:52;;;;;;;6.90;3.20;;;;;;;18.01;66.97;99964.63;7327990;39;21300;31
2023/10/08 00:17:31;;;;;;;5.00;3.30;;;;;;;18.08;67.01;99967.41;7306429;39;20249;31
2023/10/08 00:23:09;;;;;;;7.67;3.63;;;;;;;18.05;67.48;99969.69;7287628;39;20280;31
2023/10/08 00:28:40;;;;;;;5.35;3.35;;;;;;;18.11;67.17;99966.19;7322728;39;20512;31
2023/10/08 00:34:13;;;;;;;6.73;3.27;;;;;;;18.13;67.10;99964.09;7318838;39;20356;31
2023/10/08 00:45:30;;;;;;;6.10;3.30;;;;;;;18.13;67.96;99950.44;7215275;40;20345;31
2023/10/08 00:51:25;;;;;;;6.90;3.00;;;;;;;18.14;68.02;99958.44;7219218;40;20312;31
2023/10/08 00:56:50;;;;;;;7.10;3.40;;;;;;;18.15;67.73;99945.66;7247119;40;20264;31
2023/10/08 01:02:24;;;;;;;8.40;3.70;;;;;;;18.16;67.78;99930.97;7210207;40;20798;31
2023/10/08 01:07:56;;;;;;;5.97;3.33;;;;;;;18.13;68.19;99937.66;7140173;40;20714;31
2023/10/08 01:13:36;;;;;;;7.80;3.50;;;;;;;18.10;67.81;99948.13;7156503;40;20257;31
2023/10/08 01:18:54;;;;;;;5.70;3.23;;;;;;;18.11;68.38;99944.34;7251768;39;20270;31
2023/10/08 01:24:36;;;;;;;4.20;3.23;;;;;;;18.01;68.67;99937.34;7282232;39;20249;31
2023/10/08 01:30:15;;;;;;;6.90;3.80;;;;;;;17.98;68.48;99931.44;7278139;40;20352;31
2023/10/08 01:35:27;;;;;;;6.07;3.47;;;;;;;17.99;68.37;99941.28;7287727;40;20244;31
2023/10/08 01:41:10;;;;;;;5.65;3.20;;;;;;;17.98;68.54;99934.19;7257793;40;20246;31
2023/10/08 01:46:40;;;;;;;6.10;3.20;;;;;;;17.93;68.98;99932.03;7235836;40;20260;31
2023/10/08 01:52:05;;;;;;;4.80;3.40;;;;;;;17.90;68.35;99929.69;7260627;40;20264;31
2023/10/08 01:57:33;;;;;;;7.55;3.35;;;;;;;17.87;68.70;99935.53;7055719;40;20388;31
2023/10/08 02:03:09;;;;;;;8.00;3.80;;;;;;;17.82;68.78;99938.00;7331741;39;21198;31
2023/10/08 02:08:27;;;;;;;5.60;3.70;;;;;;;17.81;68.64;99946.41;7295226;39;20329;31
2023/10/08 02:14:00;;;;;;;5.70;3.47;;;;;;;17.74;69.72;99956.37;7343461;39;20249;31
2023/10/08 02:19:26;;;;;;;7.90;3.70;;;;;;;17.75;68.66;99948.00;7277627;39;20344;31
2023/10/08 02:24:40;;;;;;;11.70;3.75;;;;;;;17.74;68.93;99949.03;7277012;40;20244;31
2023/10/08 02:30:17;;;;;;;6.63;3.73;;;;;;;17.72;68.78;99945.69;7267605;39;20334;31
2023/10/08 02:35:35;;;;;;;9.70;4.00;;;;;;;17.77;68.72;99953.28;7280256;39;20237;31
2023/10/08 02:40:56;;;;;;;8.17;3.80;;;;;;;17.72;69.00;99962.03;7306941;39;20225;31
2023/10/08 02:46:30;;;;;;;5.83;3.30;;;;;;;17.57;69.47;99961.19;7326372;39;20275;31
2023/10/08 02:52:04;;;;;;;7.00;3.60;;;;;;;17.53;68.95;99955.28;7280035;40;20315;31
2023/10/08 02:57:22;;;;;;;5.80;3.40;;;;;;;17.56;68.76;99956.78;7265505;39;20240;31
2023/10/08 03:03:15;;;;;;;7.87;3.62;;;;;;;17.47;69.70;99949.75;7306253;39;20341;31
2023/10/08 03:14:21;;;;;;;6.10;3.80;;;;;;;17.39;69.82;99955.31;7362330;38;10041511;31
2023/10/08 03:19:38;;;;;;;5.80;3.40;;;;;;;17.32;69.89;99954.41;7466746;39;20315;31
2023/10/08 03:24:58;;;;;;;7.00;4.00;;;;;;;17.31;69.65;99942.66;7368374;39;20235;31
2023/10/08 03:30:37;;;;;;;8.40;4.13;;;;;;;17.30;69.78;99957.31;7409973;39;21166;31
2023/10/08 03:36:14;;;;;;;5.77;3.37;;;;;;;17.27;69.94;99965.88;7333909;39;20261;31
2023/10/08 03:41:31;;;;;;;8.73;3.97;;;;;;;17.22;69.56;99972.94;7304319;39;20246;31
2023/10/08 03:47:10;;;;;;;6.47;3.80;;;;;;;17.13;69.81;99972.19;7262866;40;20321;31
2023/10/08 03:57:41;;;;;;;6.65;3.65;;;;;;;17.01;70.42;99958.22;7370906;39;21446;31
2023/10/08 04:08:24;;;;;;;7.10;4.60;;;;;;;16.97;70.86;99945.16;7408728;39;21103;31
2023/10/08 04:13:48;;;;;;;7.93;3.80;;;;;;;16.98;70.59;99952.31;7387108;39;20790;31
2023/10/08 04:24:27;;;;;;;6.20;3.70;;;;;;;16.93;69.90;99947.44;7422021;39;20276;31
2023/10/08 04:29:55;;;;;;;6.55;4.00;;;;;;;16.97;69.65;99943.28;7354323;39;20587;31
2023/10/08 04:35:17;;;;;;;10.00;4.40;;;;;;;16.88;70.12;99941.72;7297930;40;20344;31
2023/10/08 04:40:53;;;;;;;7.93;4.20;;;;;;;16.85;70.54;99958.41;7382484;39;20652;31
2023/10/08 04:46:24;;;;;;;7.23;3.80;;;;;;;16.89;70.09;99972.50;7337551;39;20354;31
2023/10/08 04:51:43;;;;;;;6.90;4.07;;;;;;;16.82;70.20;99974.28;7359718;39;20262;31
2023/10/08 04:57:22;;;;;;;11.30;4.20;;;;;;;16.68;71.11;99979.53;7369080;39;20333;31
2023/10/08 05:02:49;;;;;;;7.20;3.90;;;;;;;16.64;71.01;99985.53;7338598;39;21147;31
2023/10/08 05:08:03;;;;;;;9.43;4.00;;;;;;;16.55;71.20;100001.06;7324255;39;21455;31
2023/10/08 05:13:45;;;;;;;5.90;3.60;;;;;;;16.43;71.65;99988.09;7300564;39;20260;31
2023/10/08 05:24:40;;;;;;;7.57;3.93;;;;;;;16.39;71.96;99978.63;7319533;39;20328;31
2023/10/08 05:30:25;;;;;;;6.75;3.80;;;;;;;16.41;72.16;99982.81;7340253;39;20602;31
2023/10/08 05:36:02;;;;;;;9.50;4.20;;;;;;;16.43;70.89;99977.22;7303395;39;20500;31
2023/10/08 05:47:28;;;;;;;9.60;4.65;;;;;;;16.24;70.91;99987.59;7248706;39;20502;31
2023/10/08 05:52:50;;;;;;;5.60;3.60;;;;;;;16.07;71.11;99991.47;7311148;39;20255;31
2023/10/08 06:04:00;;;;;;;9.13;3.70;;;;;;;15.99;69.84;99996.97;7458788;39;20265;31
2023/10/08 06:15:07;;;;;;;6.77;4.50;;;;;;;16.00;69.95;100001.41;7363868;39;20284;31
2023/10/08 06:20:29;;;;;;;8.57;4.30;;;;;;;15.91;70.36;100005.19;7344136;39;20253;31
2023/10/08 06:26:13;;;;;;;6.25;3.70;;;;;;;15.91;70.02;100001.62;7294737;39;20262;31
2023/10/08 06:31:27;;;;;;;7.20;4.10;;;;;;;15.83;70.62;100021.59;7279811;39;21646;31
2023/10/08 06:37:03;;;;;;;8.43;4.30;;;;;;;15.84;70.60;100020.53;7318864;39;21363;31
2023/10/08 06:42:38;;;;;;;8.53;3.90;;;;;;;15.79;71.21;100028.41;7296185;39;20259;31
2023/10/08 06:48:05;;;;;;;8.15;4.00;;;;;;;15.92;71.38;100031.38;7282181;40;20330;31
2023/10/08 06:58:40;;;;;;;8.83;4.20;;;;;;;16.09;71.30;100042.97;7330682;39;20274;31
2023/10/08 07:04:04;;;;;;;8.70;4.27;;;;;;;16.27;72.34;100045.38;7327955;39;20326;31
2023/10/08 07:09:29;;;;;;;10.65;5.70;;;;;;;16.50;72.14;100055.19;7359767;39;20265;31
2023/10/08 07:15:01;;;;;;;7.83;4.20;;;;;;;16.64;72.00;100048.13;7378583;39;20341;31
2023/10/08 07:20:22;;;;;;;9.70;3.60;;;;;;;16.81;71.75;100038.78;7357361;39;20248;31
2023/10/08 07:25:46;;;;;;;7.67;4.10;;;;;;;16.92;71.84;100027.44;7331526;39;20253;31
2023/10/08 07:31:20;;;;;;;6.93;3.93;;;;;;;17.00;71.81;100027.34;7332783;39;20244;31
2023/10/08 07:36:39;;;;;;;5.55;3.60;;;;;;;17.18;70.60;100053.38;7353442;39;20297;31
2023/10/08 07:42:13;;;;;;;7.27;3.73;;;;;;;17.28;70.64;100062.97;7326136;39;20363;31
2023/10/08 07:47:49;;;;;;;7.95;3.60;;;;;;;17.47;71.06;100061.50;7284551;40;20322;31
2023/10/08 07:53:37;;;;;;;5.77;3.60;;;;;;;17.61;69.93;100065.28;7337949;39;20438;31
2023/10/08 07:58:45;;;;;;;8.80;4.60;;;;;;;17.69;70.01;100076.94;7297756;39;20237;31
2023/10/08 08:04:22;;;;;;;7.60;4.03;;;;;;;17.76;69.36;100066.97;7360176;39;20321;31
2023/10/08 08:09:59;;;;;;;7.10;4.00;;;;;;;17.80;69.63;100079.19;7369628;39;20337;31
2023/10/08 08:15:39;;;;;;;6.93;3.50;;;;;;;17.84;69.48;100080.50;7360363;39;20272;31
2023/10/08 08:21:14;;;;;;;6.53;3.50;;;;;;;17.97;69.38;100080.63;7354383;39;20267;31
2023/10/08 08:27:01;;;;;;;7.80;3.90;;;;;;;18.07;69.63;100082.22;7394431;39;20314;31
2023/10/08 08:32:08;;;;;;;6.40;3.75;;;;;;;18.19;69.09;100094.31;7339706;39;20322;31
2023/10/08 08:37:41;;;;;;;6.30;3.83;;;;;;;18.27;68.66;100102.38;7356302;39;20241;31
2023/10/08 08:43:16;;;;;;;5.50;3.35;;;;;;;18.39;68.47;100096.19;7339301;39;20256;31
2023/10/08 08:48:52;;;;;;;8.37;4.23;;;;;;;18.49;67.67;100090.41;7255826;40;20423;31
2023/10/08 08:59:31;;;;;;;7.00;3.87;;;;;;;18.66;67.90;100093.75;7305623;39;20352;31
2023/10/08 09:05:13;;;;;;;7.35;3.85;;;;;;;18.81;66.39;100109.03;7337301;39;20367;31
2023/10/08 09:10:51;;;;;;;6.65;4.00;;;;;;;18.97;66.45;100104.28;7254870;39;20369;31
2023/10/08 09:16:29;;;;;;;6.40;3.90;;;;;;;19.19;66.13;100095.84;7280214;39;20372;31
2023/10/08 09:22:19;;;;;;;7.30;3.77;;;;;;;19.35;65.76;100100.97;7257819;40;20281;31
2023/10/08 09:27:52;;;;;;;7.10;3.90;;;;;;;19.53;65.98;100096.91;7293308;39;20377;31
2023/10/08 09:33:27;;;;;;;15.73;8.10;;;;;;;19.75;64.56;100103.97;7286157;39;20325;31
2023/10/08 09:39:04;;;;;;;19.77;11.40;;;;;;;19.97;63.88;100096.47;7288762;39;20287;31
2023/10/08 09:49:45;;;;;;;9.63;4.37;;;;;;;20.19;62.71;100098.00;7251771;39;20748;31
2023/10/08 09:55:22;;;;;;;7.30;4.00;;;;;;;20.38;61.90;100099.16;7332231;39;20247;31
2023/10/08 10:00:58;;;;;;;8.63;4.47;;;;;;;20.58;61.87;100084.41;7328225;39;20264;31
2023/10/08 10:06:29;;;;;;;7.47;3.90;;;;;;;20.72;60.51;100095.38;7100248;39;21180;31
2023/10/08 10:12:09;;;;;;;10.07;4.33;;;;;;;20.78;59.51;100089.06;7246364;39;20246;31
2023/10/08 10:17:39;;;;;;;6.78;3.90;;;;;;;20.91;59.64;100100.03;7273369;39;20293;31
2023/10/08 10:23:16;;;;;;;23.17;16.77;;;;;;;21.06;59.20;100108.91;7270068;40;20272;31
2023/10/08 10:28:51;;;;;;;11.40;5.60;;;;;;;21.27;60.63;100111.44;7310184;39;20252;31
2023/10/08 10:34:27;;;;;;;7.20;4.45;;;;;;;21.37;59.61;100103.59;7268251;39;20350;31
2023/10/08 10:40:11;;;;;;;10.20;4.57;;;;;;;21.53;59.59;100088.56;7253037;40;20253;31
2023/10/08 10:45:55;;;;;;;8.75;4.35;;;;;;;21.70;58.91;100092.53;7251740;39;20256;31
2023/10/08 10:51:29;;;;;;;8.47;4.13;;;;;;;21.86;58.34;100080.19;7272087;40;20244;31
2023/10/08 10:57:05;;;;;;;6.95;4.15;;;;;;;22.04;58.04;100074.87;7310089;39;20356;31
2023/10/08 11:02:42;;;;;;;7.76;4.02;;;;;;;22.07;57.04;100076.34;7326841;39;20263;31
2023/10/08 11:08:15;;;;;;;7.32;3.85;;;;;;;22.12;56.94;100071.88;7287820;39;20253;31
2023/10/08 11:13:54;;;;;;;8.05;4.00;;;;;;;22.32;56.74;100069.84;7275945;40;20302;31
2023/10/08 11:19:27;;;;;;;8.34;3.82;;;;;;;22.45;56.35;100069.78;7298224;39;20260;31
2023/10/08 11:25:05;;;;;;;10.25;4.95;;;;;;;22.53;56.70;100065.06;7279496;39;20257;31
2023/10/08 11:30:42;;;;;;;8.40;4.15;;;;;;;22.71;55.39;100066.00;7334110;39;20275;31
2023/10/08 11:36:19;;;;;;;9.60;4.90;;;;;;;22.83;55.48;100061.44;7280584;40;20544;31
2023/10/08 11:41:55;;;;;;;11.20;4.90;;;;;;;23.03;55.08;100057.69;7289591;40;20245;31
2023/10/08 11:47:35;;;;;;;7.80;4.10;;;;;;;23.23;53.65;100045.41;7258933;40;20327;31
2023/10/08 11:52:50;;;;;;;10.85;4.40;;;;;;;23.36;54.44;100059.03;7258412;40;20381;31
2023/10/08 12:03:29;;;;;;;6.70;3.87;;;;;;;23.69;54.39;100035.81;7318304;39;20252;31
2023/10/08 12:08:53;;;;;;;6.43;3.90;;;;;;;23.85;53.61;100024.16;7319554;39;20247;31
2023/10/08 12:14:07;;;;;;;10.90;4.20;;;;;;;23.96;52.52;100022.53;7318365;39;20252;31
2023/10/08 12:19:42;;;;;;;8.18;4.46;;;;;;;24.08;52.06;100032.53;7339484;39;20308;31
2023/10/08 12:25:00;;;;;;;10.15;4.00;;;;;;;24.16;53.18;100028.62;7303295;40;20252;31
2023/10/08 12:30:16;;;;;;;7.53;4.20;;;;;;;24.31;52.18;100019.94;7307885;39;20525;31
2023/10/08 12:35:53;;;;;;;9.07;4.47;;;;;;;24.41;51.85;100022.91;7340281;39;20356;31
2023/10/08 12:41:28;;;;;;;7.57;4.15;;;;;;;24.41;51.19;100026.53;7299974;39;20364;31
2023/10/08 12:47:05;;;;;;;14.20;4.95;;;;;;;24.56;50.96;100021.41;7294990;39;20257;31
2023/10/08 12:52:42;;;;;;;11.80;4.45;;;;;;;24.64;50.76;100034.00;7260901;40;20427;31
2023/10/08 12:58:14;;;;;;;10.75;4.10;;;;;;;24.74;50.42;100023.22;7296900;39;21271;31
2023/10/08 13:03:48;;;;;;;9.65;3.70;;;;;;;24.90;51.08;100028.06;7219080;40;20452;31
2023/10/08 13:09:24;;;;;;;11.84;4.42;;;;;;;24.94;49.78;100020.97;7216307;40;20437;31
2023/10/08 13:15:01;;;;;;;11.65;3.95;;;;;;;25.08;50.23;100019.66;7205795;40;20271;31
2023/10/08 13:20:34;;;;;;;9.86;4.74;;;;;;;25.06;49.88;100010.78;7301314;40;20528;31
2023/10/08 13:26:16;;;;;;;9.60;4.18;;;;;;;25.20;49.41;100007.75;7268134;40;20257;31
2023/10/08 13:31:46;;;;;;;14.66;4.94;;;;;;;25.17;48.80;100003.59;7259344;40;20331;31
2023/10/08 13:37:21;;;;;;;9.32;4.00;;;;;;;25.13;48.77;100003.22;7283710;40;20257;31
2023/10/08 13:42:57;;;;;;;9.06;4.06;;;;;;;25.09;49.99;100002.03;7362229;39;20348;31
2023/10/08 13:48:33;;;;;;;10.05;4.70;;;;;;;25.18;49.45;99999.75;7328316;39;20329;31
2023/10/08 13:54:09;;;;;;;8.98;3.88;;;;;;;25.12;50.04;99990.50;7289209;39;20423;31
2023/10/08 13:59:42;;;;;;;8.80;4.10;;;;;;;25.14;49.82;99979.25;7258134;40;20256;31
2023/10/08 14:05:03;;;;;;;13.80;4.53;;;;;;;25.18;49.12;99983.19;7267282;39;20439;31
2023/10/08 14:10:29;;;;;;;10.27;4.10;;;;;;;25.20;49.77;99974.66;7260245;40;20349;31
2023/10/08 14:15:58;;;;;;;16.60;4.80;;;;;;;25.12;49.65;99984.16;7232118;40;20264;31
2023/10/08 14:21:19;;;;;;;7.70;4.40;;;;;;;25.14;50.07;99990.28;7229794;40;20266;31
2023/10/08 14:26:39;;;;;;;8.45;4.10;;;;;;;25.10;49.89;99983.53;7254277;39;20315;31
2023/10/08 14:32:15;;;;;;;10.13;4.00;;;;;;;25.07;50.72;99968.31;7304820;39;20255;31
2023/10/08 14:43:34;;;;;;;10.30;4.57;;;;;;;25.06;50.67;99955.59;7341186;39;20259;31
2023/10/08 14:49:09;;;;;;;10.35;4.45;;;;;;;24.93;50.67;99955.00;7317699;39;20267;31
2023/10/08 14:54:40;;;;;;;10.40;4.66;;;;;;;24.84;49.31;99953.66;7320264;39;20263;31
2023/10/08 15:00:00;;;;;;;8.26;4.30;;;;;;;24.77;50.52;99956.56;7283886;40;20247;31
2023/10/08 15:05:37;;;;;;;9.27;4.78;;;;;;;24.63;51.07;99942.16;7293237;39;20305;31
2023/10/08 15:10:56;;;;;;;8.52;4.15;;;;;;;24.58;51.18;99942.03;7310528;39;20331;31
2023/10/08 15:16:19;;;;;;;9.07;4.43;;;;;;;24.49;52.13;99939.87;7315611;39;20256;31
2023/10/08 15:21:53;;;;;;;6.70;3.85;;;;;;;24.34;52.14;99934.00;7340973;39;20257;31
2023/10/08 15:27:31;;;;;;;11.98;4.70;;;;;;;24.24;51.81;99929.91;7345259;39;20422;31
2023/10/08 15:33:05;;;;;;;9.75;4.47;;;;;;;24.15;52.41;99934.09;7330009;39;20248;31
2023/10/08 15:38:40;;;;;;;12.87;4.70;;;;;;;24.03;52.94;99927.69;7309454;39;20357;31
2023/10/08 15:44:01;;;;;;;12.03;4.97;;;;;;;23.95;52.52;99930.78;7307923;39;20370;31
2023/10/08 15:49:36;;;;;;;10.88;5.05;;;;;;;23.83;53.46;99932.66;7280955;40;20342;31
2023/10/08 15:55:11;;;;;;;10.25;4.43;;;;;;;23.73;53.59;99926.91;7222248;40;20257;31
2023/10/08 16:00:32;;;;;;;17.55;4.45;;;;;;;23.65;54.39;99928.03;7247596;40;20245;31
2023/10/08 16:06:05;;;;;;;16.15;4.70;;;;;;;23.53;55.53;99931.81;7244517;40;20500;31
2023/10/08 16:16:46;;;;;;;9.77;4.18;;;;;;;23.20;58.36;99933.09;7120729;39;20351;31
2023/10/08 16:22:04;;;;;;;10.30;4.65;;;;;;;23.01;58.67;99933.31;7298757;39;21362;31
2023/10/08 16:27:40;;;;;;;8.48;4.37;;;;;;;22.82;59.82;99946.19;7331405;39;20320;31
2023/10/08 16:33:15;;;;;;;14.64;5.74;;;;;;;22.54;60.95;99943.09;7319118;39;20260;31
2023/10/08 16:38:35;;;;;;;9.07;4.53;;;;;;;22.39;60.79;99955.25;7292365;39;20265;31
2023/10/08 16:49:17;;;;;;;10.63;4.70;;;;;;;21.93;61.78;99946.53;7316450;39;20275;31
2023/10/08 16:54:52;;;;;;;9.32;4.97;;;;;;;21.74;61.84;99948.31;7279872;39;20287;31
2023/10/08 17:05:33;;;;;;;12.57;4.93;;;;;;;21.26;63.95;99939.69;7278050;40;20398;31
2023/10/08 17:16:13;;;;;;;13.85;4.75;;;;;;;20.86;63.84;99935.38;7348512;39;20275;31
2023/10/08 17:26:55;;;;;;;7.80;4.22;;;;;;;20.52;64.75;99940.09;7306529;39;20387;31
2023/10/08 17:37:20;;;;;;;12.70;4.64;;;;;;;20.36;64.58;99934.22;7341850;39;20455;31
2023/10/08 17:48:00;;;;;;;13.70;4.85;;;;;;;20.05;65.02;99929.34;7358165;39;20275;31
2023/10/08 17:53:20;;;;;;;12.63;4.47;;;;;;;19.87;64.97;99937.31;7340084;39;20380;31
2023/10/08 17:58:55;;;;;;;15.75;7.03;;;;;;;19.67;65.91;99940.00;7339003;39;21419;31
2023/10/08 18:04:32;;;;;;;10.87;4.83;;;;;;;19.52;66.35;99934.72;7315136;39;20272;31
2023/10/08 18:10:07;;;;;;;9.70;4.60;;;;;;;19.36;66.39;99926.84;7306828;39;21597;31
2023/10/08 18:15:43;;;;;;;11.00;5.00;;;;;;;19.10;66.74;99933.06;7349014;39;20400;31
2023/10/08 18:21:21;;;;;;;11.77;5.10;;;;;;;19.10;66.43;99937.69;7291133;39;20256;31
2023/10/08 18:26:42;;;;;;;11.95;5.15;;;;;;;19.02;67.50;99948.78;7276567;39;20279;31
2023/10/08 18:37:23;;;;;;;10.97;5.00;;;;;;;18.79;67.00;99951.81;7290089;39;20333;31
2023/10/08 18:48:05;;;;;;;13.53;5.10;;;;;;;18.53;68.14;99944.28;7361926;39;20280;31
2023/10/08 18:53:39;;;;;;;15.90;5.20;;;;;;;18.36;68.45;99945.59;7339875;39;20255;31
2023/10/08 18:59:15;;;;;;;11.23;4.73;;;;;;;18.36;68.17;99929.22;7301608;39;20345;31
2023/10/08 19:04:50;;;;;;;10.13;4.63;;;;;;;18.45;68.44;99931.63;7299519;39;20315;31
2023/10/08 19:10:27;;;;;;;11.65;5.00;;;;;;;18.29;69.12;99917.44;7289061;39;20244;31
2023/10/08 19:16:04;;;;;;;10.57;4.63;;;;;;;18.23;68.90;99920.94;7247633;40;20369;31
2023/10/08 19:21:40;;;;;;;12.50;5.50;;;;;;;18.14;69.12;99912.06;7286990;40;20253;31
2023/10/08 19:27:19;;;;;;;13.05;6.55;;;;;;;18.05;69.62;99909.66;7246103;40;20254;31
2023/10/08 19:32:36;;;;;;;11.50;5.50;;;;;;;17.93;69.29;99904.75;7291926;39;20453;31
2023/10/08 19:38:12;;;;;;;14.27;5.33;;;;;;;17.76;70.45;99894.31;7297913;39;20245;31
2023/10/08 19:43:49;;;;;;;11.10;5.00;;;;;;;17.66;70.34;99905.53;7300004;39;20471;31
2023/10/08 19:49:23;;;;;;;11.30;4.83;;;;;;;17.72;70.23;99902.06;7279521;40;20253;31
2023/10/08 19:54:43;;;;;;;13.23;5.20;;;;;;;17.74;69.59;99904.56;7208677;40;20257;31
2023/10/08 20:05:25;;;;;;;15.13;5.13;;;;;;;17.64;70.85;99896.69;7326736;39;20265;31
2023/10/08 20:11:00;;;;;;;9.00;4.43;;;;;;;17.56;71.15;99891.34;7328649;39;20268;31
2023/10/08 20:21:40;;;;;;;12.00;4.80;;;;;;;17.45;71.31;99880.97;7316902;39;20568;31
2023/10/08 20:27:17;;;;;;;10.30;4.50;;;;;;;17.43;70.73;99883.88;7297623;39;20326;31
2023/10/08 20:32:52;;;;;;;9.00;4.60;;;;;;;17.24;72.34;99884.53;7318567;39;20459;31
2023/10/08 20:38:27;;;;;;;10.20;4.50;;;;;;;17.21;72.10;99882.16;7336450;39;20441;31
2023/10/08 20:48:53;;;;;;;8.30;3.90;;;;;;;17.49;70.64;99874.94;7283811;40;21119;31
2023/10/08 20:54:29;;;;;;;9.60;4.30;;;;;;;17.46;70.62;99863.59;7358519;39;20389;31
2023/10/08 20:59:49;;;;;;;15.97;5.00;;;;;;;17.36;71.29;99863.91;7348384;39;20369;31
2023/10/08 21:05:25;;;;;;;12.37;5.13;;;;;;;17.40;71.03;99858.91;7299723;39;20408;31
2023/10/08 21:10:58;;;;;;;12.97;4.97;;;;;;;17.36;71.52;99854.88;7278074;40;20270;31
2023/10/08 21:16:19;;;;;;;10.07;5.13;;;;;;;17.31;71.67;99860.91;7265496;40;20296;31
2023/10/08 21:21:40;;;;;;;10.40;4.60;;;;;;;17.32;71.63;99853.59;7304995;39;20340;31
2023/10/08 21:27:14;;;;;;;10.80;4.00;;;;;;;17.20;71.91;99853.22;7329516;39;20352;31
2023/10/08 21:32:49;;;;;;;7.03;4.37;;;;;;;17.17;72.00;99853.63;7293855;39;20236;31
2023/10/08 21:38:11;;;;;;;13.35;5.35;;;;;;;17.18;72.42;99849.03;7259835;40;20312;31
2023/10/08 21:43:44;;;;;;;11.90;4.90;;;;;;;17.13;72.24;99835.97;7239847;40;20454;31
2023/10/08 21:49:20;;;;;;;10.00;4.77;;;;;;;16.94;72.64;99840.16;7242190;39;20355;31
2023/10/08 21:54:55;;;;;;;10.80;4.53;;;;;;;17.00;72.62;99842.13;7238363;40;20237;31
2023/10/08 22:00:45;;;;;;;12.67;4.90;;;;;;;16.92;72.75;99839.53;7216967;40;20312;31
2023/10/08 22:06:08;;;;;;;11.07;4.80;;;;;;;16.94;72.44;99832.00;7250308;40;20294;31
2023/10/08 22:11:26;;;;;;;11.30;4.30;;;;;;;16.84;72.41;99836.91;7258688;39;20272;31
2023/10/08 22:17:01;;;;;;;11.25;4.90;;;;;;;16.86;72.40;99834.00;7310693;39;20431;31
2023/10/08 22:27:42;;;;;;;11.07;4.80;;;;;;;16.68;73.00;99816.19;7330791;39;20379;31
2023/10/08 22:38:24;;;;;;;12.25;4.60;;;;;;;16.67;72.78;99825.37;7315777;39;20435;31
2023/10/08 22:43:44;;;;;;;9.90;4.43;;;;;;;16.58;73.72;99812.94;7256195;40;20748;31
2023/10/08 22:49:06;;;;;;;10.40;4.60;;;;;;;16.49;73.61;99814.03;7240289;40;20798;31
2023/10/08 22:54:43;;;;;;;9.20;4.55;;;;;;;16.46;73.73;99792.63;7201336;40;20871;31
2023/10/08 23:00:11;;;;;;;7.57;4.40;;;;;;;16.48;73.48;99787.00;7289315;39;21051;31
2023/10/08 23:05:37;;;;;;;12.47;4.73;;;;;;;16.35;73.70;99784.12;7336954;39;20644;31
2023/10/08 23:11:13;;;;;;;12.13;4.70;;;;;;;16.43;73.97;99778.56;7289412;39;20866;31
2023/10/08 23:16:49;;;;;;;10.05;4.35;;;;;;;16.47;74.32;99769.84;7245090;40;20654;31
2023/10/08 23:22:23;;;;;;;15.57;4.90;;;;;;;16.33;73.55;99759.81;7225240;40;20284;31
2023/10/08 23:33:06;;;;;;;8.47;4.37;;;;;;;16.21;75.42;99754.03;7253238;40;20293;31
2023/10/08 23:38:39;;;;;;;11.25;4.00;;;;;;;16.40;73.84;99762.63;7038169;40;21952;31
2023/10/08 23:44:18;;;;;;;14.65;4.55;;;;;;;16.45;74.25;99757.47;7285360;39;20497;31
2023/10/08 23:49:53;;;;;;;10.70;4.15;;;;;;;16.47;74.66;99744.50;7277798;39;20270;31
2023/10/08 23:55:23;;;;;;;10.30;4.67;;;;;;;16.44;74.44;99743.00;7241113;40;20265;31
